GLD166 SBHT-SNMA
Flight info
| Callsign | GLD166 |
|---|---|
| Flight time | 0h 56m |
| Altitude | 4500 |
| Route | 0259S05245W 0235S05311W 0204S05342W |
| Aircraft | C182/M-SDFGIRY/S |
Departure
| Time | 2026-05-04 23:49 |
|---|---|
| Airport | Altamira Interstate Airport (SBHT) |
Arrival
| Time | 2026-05-05 00:45 |
|---|---|
| Airport | Monte Alegre Airport (SNMA) |
| Time | Latitude | Longitude | Altitude | Speed | Heading |
|---|---|---|---|---|---|
| 2026-05-04 23:48 | -3.25186 | -52.25112 | 371 ft | 0 kts | 321° |
| 2026-05-04 23:48 | -3.25184 | -52.25113 | 371 ft | 3 kts | 323° |
| 2026-05-04 23:48 | -3.25140 | -52.25180 | 373 ft | 21 kts | 250° |
| 2026-05-04 23:48 | -3.25325 | -52.25423 | 374 ft | 68 kts | 233° |
| 2026-05-04 23:49 | -3.25670 | -52.25872 | 468 ft | 93 kts | 231° |
| 2026-05-04 23:49 | -3.26064 | -52.26361 | 892 ft | 82 kts | 231° |
| 2026-05-04 23:49 | -3.26498 | -52.26806 | 1093 ft | 100 kts | 227° |
| 2026-05-04 23:49 | -3.26575 | -52.27507 | 1198 ft | 118 kts | 297° |
| 2026-05-04 23:50 | -3.26029 | -52.28174 | 1352 ft | 130 kts | 310° |
| 2026-05-04 23:50 | -3.25463 | -52.28871 | 1608 ft | 131 kts | 308° |
| 2026-05-04 23:50 | -3.24887 | -52.29583 | 1863 ft | 134 kts | 308° |
| 2026-05-04 23:50 | -3.24292 | -52.30316 | 2123 ft | 138 kts | 308° |
| 2026-05-04 23:51 | -3.23677 | -52.31079 | 2381 ft | 143 kts | 308° |
| 2026-05-04 23:51 | -3.23053 | -52.31850 | 2622 ft | 141 kts | 308° |
| 2026-05-04 23:51 | -3.22435 | -52.32621 | 2883 ft | 143 kts | 308° |
| 2026-05-04 23:51 | -3.21814 | -52.33393 | 3136 ft | 142 kts | 308° |
| 2026-05-04 23:52 | -3.21187 | -52.34170 | 3383 ft | 144 kts | 308° |
| 2026-05-04 23:52 | -3.20557 | -52.34950 | 3636 ft | 145 kts | 308° |
| 2026-05-04 23:52 | -3.19937 | -52.35716 | 3878 ft | 141 kts | 308° |
| 2026-05-04 23:52 | -3.19323 | -52.36479 | 4133 ft | 137 kts | 308° |
| 2026-05-04 23:53 | -3.18731 | -52.37211 | 4363 ft | 135 kts | 308° |
| 2026-05-04 23:53 | -3.18151 | -52.37931 | 4615 ft | 132 kts | 308° |
| 2026-05-04 23:53 | -3.17576 | -52.38644 | 4861 ft | 131 kts | 308° |
| 2026-05-04 23:53 | -3.17003 | -52.39357 | 5077 ft | 133 kts | 308° |
| 2026-05-04 23:54 | -3.16376 | -52.40139 | 4989 ft | 153 kts | 308° |
| 2026-05-04 23:54 | -3.15667 | -52.41024 | 4701 ft | 171 kts | 308° |
| 2026-05-04 23:54 | -3.14911 | -52.41973 | 4485 ft | 173 kts | 308° |
| 2026-05-04 23:54 | -3.14180 | -52.42885 | 4486 ft | 164 kts | 308° |
| 2026-05-04 23:55 | -3.13500 | -52.43786 | 4482 ft | 160 kts | 302° |
| 2026-05-04 23:55 | -3.12951 | -52.44747 | 4480 ft | 158 kts | 299° |
| 2026-05-04 23:55 | -3.11681 | -52.46545 | 4476 ft | 158 kts | 306° |
| 2026-05-04 23:56 | -3.11063 | -52.47439 | 4476 ft | 158 kts | 305° |
| 2026-05-04 23:56 | -3.10421 | -52.48337 | 4476 ft | 158 kts | 305° |
| 2026-05-04 23:56 | -3.09779 | -52.49233 | 4478 ft | 158 kts | 305° |
| 2026-05-04 23:56 | -3.09133 | -52.50136 | 4476 ft | 159 kts | 305° |
| 2026-05-04 23:57 | -3.08491 | -52.51035 | 4485 ft | 160 kts | 305° |
| 2026-05-04 23:57 | -3.07836 | -52.51952 | 4477 ft | 161 kts | 305° |
| 2026-05-04 23:57 | -3.07186 | -52.52861 | 4477 ft | 160 kts | 305° |
| 2026-05-04 23:57 | -3.06540 | -52.53765 | 4477 ft | 159 kts | 305° |
| 2026-05-04 23:58 | -3.05896 | -52.54666 | 4476 ft | 160 kts | 305° |
| 2026-05-04 23:58 | -3.05253 | -52.55569 | 4488 ft | 160 kts | 305° |
| 2026-05-04 23:58 | -3.04606 | -52.56478 | 4477 ft | 160 kts | 305° |
| 2026-05-04 23:58 | -3.03964 | -52.57379 | 4478 ft | 160 kts | 305° |
| 2026-05-04 23:59 | -3.03310 | -52.58293 | 4479 ft | 162 kts | 305° |
| 2026-05-04 23:59 | -3.02660 | -52.59208 | 4478 ft | 161 kts | 305° |
| 2026-05-04 23:59 | -3.02012 | -52.60119 | 4494 ft | 161 kts | 305° |
| 2026-05-04 23:59 | -3.01351 | -52.61049 | 4480 ft | 164 kts | 305° |
| 2026-05-05 00:00 | -3.00695 | -52.61970 | 4479 ft | 161 kts | 305° |
| 2026-05-05 00:00 | -3.00486 | -52.62265 | 4479 ft | 160 kts | 305° |
| 2026-05-05 00:00 | -2.99389 | -52.63807 | 4493 ft | 165 kts | 304° |
| 2026-05-05 00:00 | -2.98732 | -52.64732 | 4486 ft | 164 kts | 305° |
| 2026-05-05 00:01 | -2.98072 | -52.65659 | 4480 ft | 162 kts | 305° |
| 2026-05-05 00:01 | -2.97422 | -52.66574 | 4491 ft | 163 kts | 305° |
| 2026-05-05 00:01 | -2.96759 | -52.67500 | 4488 ft | 165 kts | 305° |
| 2026-05-05 00:01 | -2.96096 | -52.68432 | 4480 ft | 163 kts | 304° |
| 2026-05-05 00:02 | -2.95448 | -52.69350 | 4479 ft | 161 kts | 305° |
| 2026-05-05 00:02 | -2.94800 | -52.70264 | 4478 ft | 161 kts | 305° |
| 2026-05-05 00:02 | -2.94154 | -52.71176 | 4478 ft | 160 kts | 305° |
| 2026-05-05 00:02 | -2.93514 | -52.72081 | 4477 ft | 159 kts | 305° |
| 2026-05-05 00:03 | -2.92875 | -52.72984 | 4476 ft | 159 kts | 305° |
| 2026-05-05 00:03 | -2.92237 | -52.73885 | 4476 ft | 159 kts | 305° |
| 2026-05-05 00:03 | -2.91595 | -52.74791 | 4489 ft | 161 kts | 304° |
| 2026-05-05 00:03 | -2.90957 | -52.75697 | 4477 ft | 160 kts | 305° |
| 2026-05-05 00:04 | -2.90315 | -52.76604 | 4477 ft | 159 kts | 305° |
| 2026-05-05 00:04 | -2.89673 | -52.77511 | 4477 ft | 159 kts | 305° |
| 2026-05-05 00:04 | -2.89036 | -52.78415 | 4477 ft | 159 kts | 305° |
| 2026-05-05 00:04 | -2.88388 | -52.79334 | 4477 ft | 162 kts | 304° |
| 2026-05-05 00:05 | -2.87743 | -52.80250 | 4477 ft | 160 kts | 304° |
| 2026-05-05 00:05 | -2.87104 | -52.81159 | 4476 ft | 159 kts | 304° |
| 2026-05-05 00:05 | -2.86466 | -52.82064 | 4476 ft | 159 kts | 304° |
| 2026-05-05 00:05 | -2.85836 | -52.82958 | 4476 ft | 159 kts | 304° |
| 2026-05-05 00:06 | -2.85201 | -52.83861 | 4476 ft | 159 kts | 304° |
| 2026-05-05 00:06 | -2.84564 | -52.84766 | 4476 ft | 159 kts | 304° |
| 2026-05-05 00:06 | -2.83928 | -52.85670 | 4476 ft | 159 kts | 304° |
| 2026-05-05 00:06 | -2.83291 | -52.86575 | 4476 ft | 159 kts | 304° |
| 2026-05-05 00:07 | -2.82655 | -52.87480 | 4486 ft | 159 kts | 304° |
| 2026-05-05 00:07 | -2.82008 | -52.88401 | 4484 ft | 163 kts | 304° |
| 2026-05-05 00:07 | -2.81357 | -52.89327 | 4478 ft | 161 kts | 304° |
| 2026-05-05 00:07 | -2.80712 | -52.90245 | 4491 ft | 163 kts | 304° |
| 2026-05-05 00:08 | -2.80051 | -52.91186 | 4480 ft | 165 kts | 304° |
| 2026-05-05 00:08 | -2.79402 | -52.92113 | 4480 ft | 161 kts | 304° |
| 2026-05-05 00:08 | -2.78768 | -52.93017 | 4483 ft | 160 kts | 304° |
| 2026-05-05 00:08 | -2.78117 | -52.93948 | 4479 ft | 165 kts | 304° |
| 2026-05-05 00:09 | -2.77463 | -52.94880 | 4492 ft | 163 kts | 304° |
| 2026-05-05 00:09 | -2.76812 | -52.95807 | 4480 ft | 161 kts | 304° |
| 2026-05-05 00:09 | -2.76171 | -52.96722 | 4478 ft | 160 kts | 304° |
| 2026-05-05 00:09 | -2.75534 | -52.97630 | 4477 ft | 159 kts | 304° |
| 2026-05-05 00:10 | -2.74899 | -52.98536 | 4480 ft | 159 kts | 304° |
| 2026-05-05 00:10 | -2.74258 | -52.99447 | 4477 ft | 160 kts | 305° |
| 2026-05-05 00:10 | -2.73617 | -53.00357 | 4476 ft | 159 kts | 304° |
| 2026-05-05 00:10 | -2.72991 | -53.01253 | 4476 ft | 159 kts | 304° |
| 2026-05-05 00:11 | -2.72357 | -53.02159 | 4476 ft | 159 kts | 304° |
| 2026-05-05 00:11 | -2.71724 | -53.03064 | 4476 ft | 159 kts | 304° |
| 2026-05-05 00:11 | -2.71092 | -53.03969 | 4476 ft | 159 kts | 304° |
| 2026-05-05 00:11 | -2.70460 | -53.04874 | 4476 ft | 159 kts | 304° |
| 2026-05-05 00:12 | -2.69829 | -53.05781 | 4476 ft | 159 kts | 304° |
| 2026-05-05 00:12 | -2.69197 | -53.06689 | 4476 ft | 159 kts | 304° |
| 2026-05-05 00:12 | -2.68779 | -53.07290 | 4476 ft | 159 kts | 304° |
| 2026-05-05 00:12 | -2.68148 | -53.08195 | 4476 ft | 159 kts | 304° |
| 2026-05-05 00:13 | -2.67516 | -53.09102 | 4476 ft | 159 kts | 304° |
| 2026-05-05 00:13 | -2.66887 | -53.10008 | 4476 ft | 159 kts | 304° |
| 2026-05-05 00:13 | -2.66256 | -53.10915 | 4476 ft | 159 kts | 304° |
| 2026-05-05 00:13 | -2.65626 | -53.11821 | 4477 ft | 159 kts | 304° |
| 2026-05-05 00:14 | -2.64997 | -53.12728 | 4476 ft | 159 kts | 304° |
| 2026-05-05 00:14 | -2.64366 | -53.13638 | 4476 ft | 159 kts | 304° |
| 2026-05-05 00:14 | -2.63735 | -53.14545 | 4477 ft | 159 kts | 304° |
| 2026-05-05 00:14 | -2.63105 | -53.15454 | 4476 ft | 159 kts | 304° |
| 2026-05-05 00:15 | -2.62476 | -53.16361 | 4476 ft | 159 kts | 304° |
| 2026-05-05 00:15 | -2.61853 | -53.17259 | 4476 ft | 159 kts | 304° |
| 2026-05-05 00:15 | -2.61222 | -53.18169 | 4476 ft | 159 kts | 304° |
| 2026-05-05 00:15 | -2.60593 | -53.19077 | 4477 ft | 159 kts | 304° |
| 2026-05-05 00:16 | -2.59964 | -53.19985 | 4477 ft | 159 kts | 304° |
| 2026-05-05 00:16 | -2.59333 | -53.20897 | 4477 ft | 159 kts | 304° |
| 2026-05-05 00:16 | -2.58703 | -53.21807 | 4477 ft | 159 kts | 304° |
| 2026-05-05 00:16 | -2.58075 | -53.22715 | 4476 ft | 159 kts | 304° |
| 2026-05-05 00:17 | -2.57453 | -53.23614 | 4477 ft | 159 kts | 304° |
| 2026-05-05 00:17 | -2.56824 | -53.24525 | 4477 ft | 159 kts | 304° |
| 2026-05-05 00:17 | -2.56197 | -53.25433 | 4477 ft | 159 kts | 304° |
| 2026-05-05 00:17 | -2.55567 | -53.26344 | 4477 ft | 159 kts | 304° |
| 2026-05-05 00:18 | -2.54939 | -53.27252 | 4477 ft | 159 kts | 304° |
| 2026-05-05 00:18 | -2.54312 | -53.28161 | 4477 ft | 159 kts | 304° |
| 2026-05-05 00:18 | -2.53685 | -53.29070 | 4476 ft | 159 kts | 304° |
| 2026-05-05 00:18 | -2.53058 | -53.29979 | 4477 ft | 159 kts | 304° |
| 2026-05-05 00:19 | -2.52433 | -53.30888 | 4477 ft | 159 kts | 304° |
| 2026-05-05 00:19 | -2.51807 | -53.31796 | 4476 ft | 159 kts | 304° |
| 2026-05-05 00:19 | -2.51182 | -53.32705 | 4477 ft | 159 kts | 304° |
| 2026-05-05 00:19 | -2.50556 | -53.33614 | 4476 ft | 159 kts | 304° |
| 2026-05-05 00:20 | -2.49931 | -53.34523 | 4476 ft | 159 kts | 304° |
| 2026-05-05 00:20 | -2.49307 | -53.35432 | 4477 ft | 159 kts | 304° |
| 2026-05-05 00:20 | -2.48690 | -53.36330 | 4476 ft | 159 kts | 304° |
| 2026-05-05 00:20 | -2.48065 | -53.37241 | 4477 ft | 159 kts | 304° |
| 2026-05-05 00:21 | -2.47441 | -53.38151 | 4477 ft | 159 kts | 304° |
| 2026-05-05 00:21 | -2.46816 | -53.39062 | 4477 ft | 159 kts | 304° |
| 2026-05-05 00:21 | -2.46174 | -53.39957 | 4470 ft | 158 kts | 311° |
| 2026-05-05 00:21 | -2.45339 | -53.40679 | 4466 ft | 159 kts | 320° |
| 2026-05-05 00:22 | -2.44484 | -53.41380 | 4467 ft | 159 kts | 320° |
| 2026-05-05 00:22 | -2.43630 | -53.42082 | 4467 ft | 159 kts | 320° |
| 2026-05-05 00:22 | -2.42775 | -53.42798 | 4323 ft | 163 kts | 322° |
| 2026-05-05 00:22 | -2.41937 | -53.43591 | 4323 ft | 167 kts | 320° |
| 2026-05-05 00:23 | -2.41086 | -53.44402 | 4326 ft | 169 kts | 320° |
| 2026-05-05 00:23 | -2.40230 | -53.45217 | 4326 ft | 170 kts | 320° |
| 2026-05-05 00:23 | -2.39371 | -53.46036 | 4327 ft | 171 kts | 320° |
| 2026-05-05 00:23 | -2.38521 | -53.46847 | 4320 ft | 171 kts | 320° |
| 2026-05-05 00:24 | -2.37657 | -53.47668 | 4327 ft | 171 kts | 320° |
| 2026-05-05 00:24 | -2.36793 | -53.48489 | 4327 ft | 171 kts | 320° |
| 2026-05-05 00:24 | -2.35930 | -53.49310 | 4327 ft | 171 kts | 320° |
| 2026-05-05 00:24 | -2.35068 | -53.50132 | 4330 ft | 171 kts | 320° |
| 2026-05-05 00:25 | -2.34206 | -53.50953 | 4330 ft | 171 kts | 320° |
| 2026-05-05 00:25 | -2.33346 | -53.51774 | 4328 ft | 170 kts | 320° |
| 2026-05-05 00:25 | -2.32489 | -53.52593 | 4327 ft | 170 kts | 320° |
| 2026-05-05 00:25 | -2.31636 | -53.53412 | 4329 ft | 170 kts | 320° |
| 2026-05-05 00:26 | -2.30795 | -53.54220 | 4328 ft | 170 kts | 320° |
| 2026-05-05 00:26 | -2.29942 | -53.55039 | 4326 ft | 170 kts | 320° |
| 2026-05-05 00:26 | -2.29089 | -53.55856 | 4324 ft | 170 kts | 320° |
| 2026-05-05 00:26 | -2.28236 | -53.56674 | 4325 ft | 170 kts | 320° |
| 2026-05-05 00:27 | -2.27385 | -53.57490 | 4326 ft | 169 kts | 320° |
| 2026-05-05 00:27 | -2.26536 | -53.58306 | 4325 ft | 169 kts | 320° |
| 2026-05-05 00:27 | -2.25688 | -53.59121 | 4324 ft | 169 kts | 320° |
| 2026-05-05 00:27 | -2.24839 | -53.59936 | 4327 ft | 170 kts | 320° |
| 2026-05-05 00:28 | -2.23983 | -53.60756 | 4326 ft | 171 kts | 320° |
| 2026-05-05 00:28 | -2.23126 | -53.61577 | 4327 ft | 170 kts | 320° |
| 2026-05-05 00:28 | -2.22271 | -53.62395 | 4325 ft | 169 kts | 320° |
| 2026-05-05 00:28 | -2.21435 | -53.63198 | 4324 ft | 168 kts | 320° |
| 2026-05-05 00:29 | -2.20589 | -53.64011 | 4326 ft | 168 kts | 320° |
| 2026-05-05 00:29 | -2.19744 | -53.64822 | 4325 ft | 168 kts | 320° |
| 2026-05-05 00:29 | -2.18901 | -53.65632 | 4327 ft | 168 kts | 320° |
| 2026-05-05 00:29 | -2.18059 | -53.66442 | 4327 ft | 167 kts | 320° |
| 2026-05-05 00:30 | -2.17220 | -53.67248 | 4326 ft | 167 kts | 320° |
| 2026-05-05 00:30 | -2.16380 | -53.68054 | 4325 ft | 167 kts | 319° |
| 2026-05-05 00:30 | -2.15540 | -53.68860 | 4326 ft | 167 kts | 320° |
| 2026-05-05 00:30 | -2.14707 | -53.69656 | 4322 ft | 170 kts | 319° |
| 2026-05-05 00:31 | -2.13844 | -53.70477 | 4267 ft | 172 kts | 320° |
| 2026-05-05 00:31 | -2.12977 | -53.71302 | 4220 ft | 172 kts | 319° |
| 2026-05-05 00:31 | -2.12109 | -53.72126 | 4171 ft | 172 kts | 319° |
| 2026-05-05 00:31 | -2.11237 | -53.72953 | 4126 ft | 172 kts | 319° |
| 2026-05-05 00:32 | -2.10369 | -53.73776 | 4074 ft | 172 kts | 319° |
| 2026-05-05 00:32 | -2.09495 | -53.74599 | 4023 ft | 172 kts | 320° |
| 2026-05-05 00:32 | -2.08625 | -53.75421 | 3979 ft | 172 kts | 319° |
| 2026-05-05 00:32 | -2.07753 | -53.76241 | 3930 ft | 172 kts | 319° |
| 2026-05-05 00:33 | -2.06882 | -53.77059 | 3878 ft | 172 kts | 319° |
| 2026-05-05 00:33 | -2.06007 | -53.77880 | 3831 ft | 172 kts | 319° |
| 2026-05-05 00:33 | -2.05136 | -53.78698 | 3786 ft | 172 kts | 319° |
| 2026-05-05 00:33 | -2.04263 | -53.79519 | 3742 ft | 173 kts | 319° |
| 2026-05-05 00:34 | -2.03400 | -53.80331 | 3688 ft | 173 kts | 319° |
| 2026-05-05 00:34 | -2.02527 | -53.81156 | 3646 ft | 173 kts | 319° |
| 2026-05-05 00:34 | -2.01651 | -53.81983 | 3600 ft | 173 kts | 319° |
| 2026-05-05 00:34 | -2.00770 | -53.82814 | 3547 ft | 174 kts | 319° |
| 2026-05-05 00:35 | -1.99891 | -53.83645 | 3451 ft | 175 kts | 319° |
| 2026-05-05 00:35 | -1.99024 | -53.84512 | 3310 ft | 177 kts | 316° |
| 2026-05-05 00:35 | -1.98182 | -53.85422 | 3165 ft | 178 kts | 315° |
| 2026-05-05 00:35 | -1.97339 | -53.86329 | 3023 ft | 178 kts | 315° |
| 2026-05-05 00:36 | -1.96634 | -53.87344 | 2843 ft | 182 kts | 289° |
| 2026-05-05 00:36 | -1.96679 | -53.88597 | 2664 ft | 182 kts | 258° |
| 2026-05-05 00:36 | -1.96604 | -53.89844 | 2494 ft | 181 kts | 285° |
| 2026-05-05 00:36 | -1.96305 | -53.91047 | 2353 ft | 181 kts | 284° |
| 2026-05-05 00:37 | -1.96019 | -53.92288 | 2205 ft | 181 kts | 284° |
| 2026-05-05 00:37 | -1.95741 | -53.93494 | 2066 ft | 180 kts | 284° |
| 2026-05-05 00:37 | -1.95489 | -53.94723 | 1921 ft | 180 kts | 280° |
| 2026-05-05 00:37 | -1.95341 | -53.95969 | 1772 ft | 181 kts | 277° |
| 2026-05-05 00:38 | -1.95198 | -53.97216 | 1627 ft | 181 kts | 275° |
| 2026-05-05 00:38 | -1.95208 | -53.98471 | 1477 ft | 180 kts | 266° |
| 2026-05-05 00:38 | -1.95350 | -53.99710 | 1488 ft | 179 kts | 261° |
| 2026-05-05 00:38 | -1.95656 | -54.00900 | 1477 ft | 175 kts | 255° |
| 2026-05-05 00:39 | -1.95974 | -54.02063 | 1479 ft | 172 kts | 255° |
| 2026-05-05 00:39 | -1.96276 | -54.03222 | 1493 ft | 172 kts | 257° |
| 2026-05-05 00:39 | -1.96565 | -54.04395 | 1479 ft | 173 kts | 256° |
| 2026-05-05 00:39 | -1.96914 | -54.05536 | 1473 ft | 172 kts | 250° |
| 2026-05-05 00:40 | -1.97342 | -54.06658 | 1478 ft | 172 kts | 249° |
| 2026-05-05 00:40 | -1.97704 | -54.07798 | 1477 ft | 173 kts | 257° |
| 2026-05-05 00:40 | -1.97970 | -54.08971 | 1471 ft | 172 kts | 257° |
| 2026-05-05 00:40 | -1.98245 | -54.10118 | 1478 ft | 173 kts | 257° |
| 2026-05-05 00:41 | -1.98479 | -54.11303 | 1479 ft | 175 kts | 262° |
| 2026-05-05 00:41 | -1.98620 | -54.12518 | 1482 ft | 175 kts | 264° |
| 2026-05-05 00:41 | -1.98750 | -54.13614 | 1454 ft | 139 kts | 264° |
| 2026-05-05 00:41 | -1.99046 | -54.14443 | 1355 ft | 124 kts | 225° |
| 2026-05-05 00:42 | -1.99787 | -54.14609 | 1218 ft | 105 kts | 167° |
| 2026-05-05 00:42 | -2.00355 | -54.14297 | 1085 ft | 92 kts | 115° |
| 2026-05-05 00:42 | -2.00260 | -54.13741 | 980 ft | 78 kts | 70° |
| 2026-05-05 00:42 | -2.00113 | -54.13239 | 920 ft | 76 kts | 73° |
| 2026-05-05 00:43 | -1.99957 | -54.12704 | 885 ft | 86 kts | 80° |
| 2026-05-05 00:43 | -1.99873 | -54.12078 | 863 ft | 95 kts | 81° |
| 2026-05-05 00:43 | -1.99832 | -54.11419 | 787 ft | 92 kts | 87° |
| 2026-05-05 00:43 | -1.99816 | -54.10806 | 721 ft | 86 kts | 85° |
| 2026-05-05 00:44 | -1.99781 | -54.10212 | 675 ft | 88 kts | 84° |
| 2026-05-05 00:44 | -1.99738 | -54.09595 | 621 ft | 90 kts | 86° |
| 2026-05-05 00:44 | -1.99699 | -54.08970 | 552 ft | 90 kts | 87° |
| 2026-05-05 00:44 | -1.99659 | -54.08374 | 461 ft | 81 kts | 83° |
| 2026-05-05 00:45 | -1.99608 | -54.07823 | 362 ft | 75 kts | 85° |
| 2026-05-05 00:45 | -1.99571 | -54.07324 | 325 ft | 68 kts | 86° |
| 2026-05-05 00:45 | -1.99546 | -54.06997 | 304 ft | 37 kts | 84° |
| 2026-05-05 00:45 | -1.99491 | -54.06835 | 294 ft | 11 kts | 357° |
| 2026-05-05 00:46 | -1.99485 | -54.06835 | 294 ft | 0 kts | 0° |
| 2026-05-05 00:46 | -1.99446 | -54.06842 | 294 ft | 4 kts | 303° |